HNK weather

Hotel Nikko Heliport
Miguel Hidalgo, Distrito Federal, Mexico

Public forecast

Using degrees Celsius for public forecast. Weather courtesy of forecast.io.

METAR (pilot weather report)

Closest report is Licenciado Benito Juarez International Airport, 6.9 nm (12.7 km) E. Retrieved 2019/06/19 15:40 UTC (25 minutes ago):

MMMX 191540Z 00000KT 6SM SCT020 21/13 A3037 NOSIG RMK 8/800 HZY CI

TAF (pilot weather forecast)

Closest forecast is Licenciado Benito Juarez International Airport, 6.9 nm (12.7 km) E. Retrieved 2019/06/19 12:54 UTC (3 hours ago):

TAF MMMX 191049Z 1912/2018 02005KT P6SM SCT025 BKN090 TX27/1921Z TN15/1912Z FM191800 02015KT P6SM BKN025CB BKN250 TEMPO 1921/1923 4SM TSRA FM192300 34010KT 4SM -RA BKN020CB OVC080 TEMPO 2000/2004 32010G20KT 3SM TSRA OVC020CB FM200700 34005KT P6SM SCT020 BKN090 BKN250 FM201700 02014KT P6SM BKN020CB BKN080 BKN250